createdAt,value
2023-04-21T00:00:26.516Z,46.95
2023-04-21T00:03:30.239Z,46.74
2023-04-21T00:06:33.093Z,47.03
2023-04-21T00:09:35.316Z,46.81
2023-04-21T00:12:38.280Z,46.93
2023-04-21T00:15:40.753Z,46.83
2023-04-21T00:18:43.337Z,47.09
2023-04-21T00:21:46.223Z,46.77
2023-04-21T00:24:48.868Z,46.97
2023-04-21T00:27:51.198Z,46.74
2023-04-21T00:30:54.457Z,47.04
2023-04-21T00:33:59.626Z,47.02
2023-04-21T00:37:02.603Z,47.07
2023-04-21T00:40:05.765Z,47.06
2023-04-21T00:43:08.103Z,46.99
2023-04-21T00:46:10.298Z,46.80
2023-04-21T00:49:14.523Z,46.46
2023-04-21T00:52:18.614Z,46.54
2023-04-21T00:55:21.474Z,46.33
2023-04-21T00:58:23.675Z,46.49
2023-04-21T01:01:27.372Z,46.32
2023-04-21T01:04:35.553Z,46.79
2023-04-21T01:07:39.376Z,46.14
2023-04-21T01:10:41.601Z,46.52
2023-04-21T01:13:43.820Z,45.99
2023-04-21T01:16:46.757Z,46.43
2023-04-21T01:19:51.061Z,46.26
2023-04-21T01:22:53.529Z,46.03
2023-04-21T01:25:55.757Z,46.08
2023-04-21T01:28:58.015Z,46.02
2023-04-21T01:32:05.506Z,46.39
2023-04-21T01:35:08.204Z,46.24
2023-04-21T01:38:12.595Z,46.54
2023-04-21T01:41:14.960Z,46.49
2023-04-21T01:44:17.205Z,46.04
2023-04-21T01:47:20.640Z,46.38
2023-04-21T01:50:26.693Z,46.43
2023-04-21T01:53:28.969Z,46.24
2023-04-21T01:56:31.226Z,46.19
2023-04-21T01:59:33.463Z,45.87
2023-04-21T02:02:38.072Z,46.18
2023-04-21T02:05:40.514Z,46.11
2023-04-21T02:08:42.795Z,46.20
2023-04-21T02:11:44.986Z,46.19
2023-04-21T02:14:48.193Z,46.38
2023-04-21T02:17:50.376Z,46.61
2023-04-21T02:20:52.676Z,46.76
2023-04-21T02:23:55.082Z,46.53
2023-04-21T02:26:58.628Z,46.54
2023-04-21T02:30:03.908Z,45.88
2023-04-21T02:33:06.157Z,46.21
2023-04-21T02:36:08.513Z,46.04
2023-04-21T02:39:10.762Z,46.22
2023-04-21T02:42:13.694Z,46.13
2023-04-21T02:45:16.222Z,46.24
2023-04-21T02:48:23.108Z,46.12
2023-04-21T02:51:26.852Z,46.02
2023-04-21T02:54:28.987Z,45.97
2023-04-21T02:57:31.219Z,46.30
2023-04-21T03:00:35.509Z,46.29
2023-04-21T03:03:37.862Z,46.26
2023-04-21T03:06:40.168Z,46.24
2023-04-21T03:09:42.546Z,46.08
2023-04-21T03:12:45.144Z,46.22
2023-04-21T03:15:47.618Z,46.24
2023-04-21T03:18:51.716Z,45.79
2023-04-21T03:21:54.095Z,45.62
2023-04-21T03:24:56.276Z,45.64
2023-04-21T03:27:58.555Z,45.82
2023-04-21T03:31:01.015Z,45.84
2023-04-21T03:34:03.185Z,45.94
2023-04-21T03:37:05.400Z,45.76
2023-04-21T03:40:08.792Z,45.54
2023-04-21T03:43:11.021Z,45.72
2023-04-21T03:46:18.563Z,45.24
2023-04-21T03:49:21.653Z,45.39
2023-04-21T03:52:24.436Z,45.51
2023-04-21T03:55:26.770Z,45.45
2023-04-21T03:58:29.071Z,45.53
2023-04-21T04:01:31.230Z,45.36
2023-04-21T04:04:33.703Z,44.90
2023-04-21T04:07:36.137Z,44.79
2023-04-21T04:10:38.421Z,44.33
2023-04-21T04:13:40.596Z,43.65
2023-04-21T04:16:42.975Z,42.89
2023-04-21T04:19:45.174Z,42.26
2023-04-21T04:22:47.629Z,42.17
2023-04-21T04:25:53.616Z,42.43
2023-04-21T04:28:57.140Z,41.76
2023-04-21T04:32:01.745Z,41.83
2023-04-21T04:35:06.489Z,41.43
2023-04-21T04:38:08.734Z,41.17
2023-04-21T04:41:12.940Z,40.71
2023-04-21T04:44:18.080Z,40.54
2023-04-21T04:47:20.747Z,40.19
2023-04-21T04:50:22.906Z,40.51
2023-04-21T04:53:25.826Z,40.24
2023-04-21T04:56:30.382Z,40.56
2023-04-21T04:59:32.714Z,40.32
2023-04-21T05:02:35.119Z,40.42
2023-04-21T05:05:37.622Z,40.81
2023-04-21T05:08:41.426Z,40.60
2023-04-21T05:11:43.816Z,40.57
2023-04-21T05:14:46.007Z,40.21
2023-04-21T05:17:48.534Z,40.54
2023-04-21T05:20:51.057Z,40.81
2023-04-21T05:23:57.530Z,40.33
2023-04-21T05:26:59.847Z,40.60
2023-04-21T05:30:02.031Z,40.14
2023-04-21T05:33:04.391Z,39.81
2023-04-21T05:36:10.485Z,39.89
2023-04-21T05:39:12.764Z,39.88
2023-04-21T05:42:15.020Z,39.79
2023-04-21T05:45:17.290Z,40.29
2023-04-21T05:48:19.756Z,39.88
2023-04-21T05:51:22.087Z,39.97
2023-04-21T05:54:24.410Z,39.99
2023-04-21T05:57:27.057Z,39.73
2023-04-21T06:00:29.504Z,39.62
2023-04-21T06:03:32.705Z,39.71
2023-04-21T06:06:35.834Z,39.43
2023-04-21T06:09:39.714Z,39.75
2023-04-21T06:12:43.268Z,39.58
2023-04-21T06:15:46.382Z,39.08
2023-04-21T06:18:48.809Z,39.36
2023-04-21T06:21:51.151Z,38.74
2023-04-21T06:24:53.369Z,38.02
2023-04-21T06:27:56.473Z,37.03
2023-04-21T06:30:59.747Z,37.19
2023-04-21T06:34:02.218Z,37.62
2023-04-21T06:37:04.460Z,36.92
2023-04-21T06:40:08.162Z,37.23
2023-04-21T06:43:10.575Z,38.07
2023-04-21T06:46:12.815Z,36.45
2023-04-21T06:49:15.080Z,35.84
2023-04-21T06:52:18.936Z,36.44
2023-04-21T06:55:24.626Z,36.19
2023-04-21T06:58:26.818Z,35.88
2023-04-21T07:01:29.152Z,36.12
2023-04-21T07:04:44.144Z,35.73
2023-04-21T07:07:46.677Z,34.97
2023-04-21T07:10:50.395Z,35.14
2023-04-21T07:13:56.038Z,35.52
2023-04-21T07:16:58.560Z,36.21
2023-04-21T07:20:04.435Z,35.73
2023-04-21T07:23:06.700Z,34.22
2023-04-21T07:26:08.881Z,35.08
2023-04-21T07:29:11.056Z,34.56
2023-04-21T07:32:13.505Z,35.01
2023-04-21T07:35:17.149Z,34.42
2023-04-21T07:38:21.420Z,34.09
2023-04-21T07:41:23.967Z,34.24
2023-04-21T07:44:26.400Z,33.99
2023-04-21T07:47:29.309Z,33.90
2023-04-21T07:50:32.536Z,33.89
2023-04-21T07:53:35.547Z,34.00
2023-04-21T07:58:13.172Z,34.00
2023-04-21T08:01:21.158Z,33.05
2023-04-21T08:04:27.316Z,33.60
2023-04-21T08:07:32.045Z,33.38
2023-04-21T08:10:39.593Z,32.67
2023-04-21T08:13:48.523Z,33.62
2023-04-21T08:16:51.050Z,32.53
2023-04-21T08:19:53.541Z,32.75
2023-04-21T08:23:00.192Z,32.92
2023-04-21T08:26:03.710Z,32.91
2023-04-21T08:29:07.504Z,32.78
2023-04-21T08:32:10.023Z,32.93
2023-04-21T08:35:12.443Z,32.52
2023-04-21T08:38:14.968Z,32.87
2023-04-21T08:41:17.272Z,32.95
2023-04-21T08:44:22.055Z,32.20
2023-04-21T08:47:28.489Z,32.92
2023-04-21T08:50:32.096Z,33.33
2023-04-21T08:54:04.233Z,32.37
2023-04-21T08:57:15.249Z,31.63
2023-04-21T09:00:23.370Z,32.46
2023-04-21T09:03:30.529Z,31.27
2023-04-21T09:06:50.686Z,32.13
2023-04-21T09:09:56.793Z,31.86
2023-04-21T09:12:59.728Z,31.38
2023-04-21T09:16:08.482Z,31.74
2023-04-21T09:19:16.842Z,30.84
2023-04-21T09:22:19.156Z,31.23
2023-04-21T09:25:23.747Z,30.50
2023-04-21T09:28:32.282Z,30.74
2023-04-21T09:31:35.795Z,30.64
2023-04-21T09:34:41.493Z,30.61
2023-04-21T09:37:44.585Z,30.76
2023-04-21T09:40:47.195Z,30.29
2023-04-21T09:43:54.206Z,30.83
2023-04-21T09:47:04.081Z,31.05
2023-04-21T09:50:13.346Z,31.56
2023-04-21T09:53:20.267Z,30.76
2023-04-21T09:56:26.625Z,31.43
2023-04-21T09:59:55.640Z,31.67
2023-04-21T10:02:59.205Z,31.23
2023-04-21T10:09:11.818Z,30.83
2023-04-21T10:12:14.682Z,31.11
2023-04-21T10:15:39.472Z,30.44
2023-04-21T10:18:46.233Z,30.15
2023-04-21T10:21:52.038Z,30.78
2023-04-21T10:25:00.249Z,30.74
2023-04-21T10:28:06.616Z,30.54
2023-04-21T10:31:35.853Z,31.06
2023-04-21T10:34:41.338Z,30.24
2023-04-21T10:37:49.119Z,30.32
2023-04-21T10:40:52.552Z,29.70
2023-04-21T10:43:58.649Z,30.06
2023-04-21T10:47:09.225Z,30.37
2023-04-21T10:50:47.450Z,30.57
2023-04-21T10:54:36.522Z,30.27
2023-04-21T10:57:44.513Z,30.38
2023-04-21T11:01:09.936Z,30.65
2023-04-21T11:04:16.793Z,30.73
2023-04-21T11:07:21.259Z,30.94
2023-04-21T11:10:25.134Z,30.92
2023-04-21T11:13:33.604Z,31.13
2023-04-21T11:16:37.993Z,30.53
2023-04-21T11:19:40.516Z,30.48
2023-04-21T11:22:42.726Z,31.36
2023-04-21T11:25:47.094Z,31.26
2023-04-21T11:28:50.679Z,31.62
2023-04-21T11:31:53.905Z,31.27
2023-04-21T11:34:56.146Z,31.19
2023-04-21T11:37:58.431Z,30.65
2023-04-21T11:41:00.807Z,31.73
2023-04-21T11:44:03.290Z,30.67
2023-04-21T11:47:26.834Z,30.83
2023-04-21T11:50:32.811Z,31.08
2023-04-21T11:53:35.147Z,31.20
2023-04-21T11:56:38.889Z,31.27
2023-04-21T11:59:41.638Z,30.69
2023-04-21T12:02:44.229Z,30.48
2023-04-21T12:05:46.631Z,30.64
2023-04-21T12:08:52.277Z,30.99
2023-04-21T12:11:57.571Z,31.13
2023-04-21T12:15:02.018Z,30.53
2023-04-21T12:18:04.505Z,30.26
2023-04-21T12:21:06.808Z,30.68
2023-04-21T12:24:09.067Z,30.80
2023-04-21T12:27:11.997Z,30.09
2023-04-21T12:30:14.594Z,30.17
2023-04-21T12:33:16.966Z,30.59
2023-04-21T12:36:19.428Z,30.19
2023-04-21T12:39:24.868Z,30.51
2023-04-21T12:42:30.473Z,30.45
2023-04-21T12:45:33.171Z,30.38
2023-04-21T12:48:35.618Z,30.71
2023-04-21T12:51:38.153Z,30.45
2023-04-21T12:54:40.337Z,31.40
2023-04-21T12:57:42.799Z,31.23
2023-04-21T13:00:45.164Z,31.12
2023-04-21T13:03:47.671Z,31.21
2023-04-21T13:06:50.020Z,31.24
2023-04-21T13:09:52.164Z,31.38
2023-04-21T13:12:57.343Z,30.97
2023-04-21T13:15:59.537Z,30.96
2023-04-21T13:19:01.999Z,31.12
2023-04-21T13:22:04.165Z,30.78
2023-04-21T13:25:06.815Z,30.79
2023-04-21T13:28:09.130Z,30.68
2023-04-21T13:31:11.383Z,30.77
2023-04-21T13:34:13.675Z,30.47
2023-04-21T13:37:17.087Z,30.57
2023-04-21T13:40:19.224Z,30.70
2023-04-21T13:43:21.532Z,30.94
2023-04-21T13:46:24.295Z,31.27
2023-04-21T13:49:27.195Z,31.12
2023-04-21T13:52:32.313Z,30.96
2023-04-21T13:55:34.476Z,31.08
2023-04-21T13:58:36.626Z,30.71
2023-04-21T14:01:38.883Z,31.36
2023-04-21T14:04:41.313Z,31.39
2023-04-21T14:07:43.855Z,30.87
2023-04-21T14:10:46.085Z,30.91
2023-04-21T14:14:07.537Z,31.62
2023-04-21T14:17:11.167Z,31.72
2023-04-21T14:20:14.168Z,31.45
2023-04-21T14:23:16.562Z,31.99
2023-04-21T14:26:18.714Z,31.37
2023-04-21T14:29:22.580Z,31.35
2023-04-21T14:32:25.504Z,31.42
2023-04-21T14:35:28.200Z,31.73
2023-04-21T14:38:30.853Z,31.84
2023-04-21T14:41:33.146Z,31.11
2023-04-21T14:44:35.790Z,31.95
2023-04-21T14:47:38.596Z,31.76
2023-04-21T14:50:41.442Z,31.94
2023-04-21T14:53:43.648Z,32.08
2023-04-21T14:56:45.961Z,32.21
2023-04-21T14:59:52.260Z,32.96
2023-04-21T15:02:54.571Z,33.49
2023-04-21T15:05:56.933Z,33.35
2023-04-21T15:08:59.124Z,32.68
2023-04-21T15:12:01.598Z,33.14
2023-04-21T15:15:04.000Z,32.72
2023-04-21T15:18:06.261Z,32.73
2023-04-21T15:21:08.556Z,32.21
2023-04-21T15:24:11.029Z,32.34
2023-04-21T15:27:13.182Z,31.85
2023-04-21T15:30:15.668Z,32.03
2023-04-21T15:33:17.933Z,31.35
2023-04-21T15:36:20.104Z,31.29
2023-04-21T15:39:22.376Z,31.31
2023-04-21T15:42:24.658Z,31.09
2023-04-21T15:45:26.952Z,31.34
2023-04-21T15:48:29.315Z,31.08
2023-04-21T15:51:33.414Z,31.30
2023-04-21T15:54:35.964Z,31.17
2023-04-21T15:57:38.792Z,31.07
2023-04-21T16:00:41.869Z,31.43
2023-04-21T16:03:44.306Z,31.20
2023-04-21T16:06:46.979Z,30.89
2023-04-21T16:09:49.387Z,30.85
2023-04-21T16:12:51.655Z,31.19
2023-04-21T16:15:54.037Z,31.55
2023-04-21T16:18:56.301Z,31.79
2023-04-21T16:21:58.587Z,31.14
2023-04-21T16:25:01.793Z,31.36
2023-04-21T16:28:04.215Z,30.91
2023-04-21T16:31:06.491Z,30.99
2023-04-21T16:34:08.707Z,30.61
2023-04-21T16:37:11.211Z,30.14
2023-04-21T16:40:14.092Z,30.36
2023-04-21T16:43:16.459Z,30.54
2023-04-21T16:46:19.039Z,31.04
2023-04-21T16:49:21.394Z,31.25
2023-04-21T16:52:25.606Z,31.33
2023-04-21T16:55:28.014Z,31.32
2023-04-21T16:58:33.386Z,31.08
2023-04-21T17:01:36.062Z,30.83
2023-04-21T17:04:40.008Z,30.73
2023-04-21T17:07:43.169Z,30.38
2023-04-21T17:10:45.844Z,29.86
2023-04-21T17:13:48.089Z,30.21
2023-04-21T17:16:51.034Z,29.92
2023-04-21T17:19:54.195Z,30.54
2023-04-21T17:22:56.487Z,30.71
2023-04-21T17:25:58.634Z,30.12
2023-04-21T17:29:00.994Z,31.27
2023-04-21T17:32:03.253Z,31.00
2023-04-21T17:35:05.810Z,31.07
2023-04-21T17:38:08.758Z,31.69
2023-04-21T17:41:10.992Z,32.27
2023-04-21T17:44:13.163Z,33.06
2023-04-21T17:47:15.396Z,32.48
2023-04-21T17:50:17.656Z,32.62
2023-04-21T17:53:22.939Z,33.14
2023-04-21T17:56:26.750Z,33.05
2023-04-21T17:59:29.113Z,33.03
2023-04-21T18:02:31.409Z,33.67
2023-04-21T18:05:33.807Z,33.38
2023-04-21T18:08:36.269Z,33.40
2023-04-21T18:11:38.870Z,33.36
2023-04-21T18:14:41.297Z,33.68
2023-04-21T18:17:43.489Z,33.60
2023-04-21T18:20:45.834Z,33.55
2023-04-21T18:23:49.180Z,34.30
2023-04-21T18:26:51.428Z,34.24
2023-04-21T18:29:53.595Z,33.68
2023-04-21T18:32:55.802Z,34.13
2023-04-21T18:35:58.262Z,34.46
2023-04-21T18:39:00.747Z,34.30
2023-04-21T18:42:03.022Z,34.30
2023-04-21T18:45:05.811Z,34.59
2023-04-21T18:48:12.150Z,34.90
2023-04-21T18:51:17.434Z,34.76
2023-04-21T18:54:19.620Z,34.49
2023-04-21T18:57:21.857Z,35.24
2023-04-21T19:00:24.095Z,35.37
2023-04-21T19:03:26.508Z,35.50
2023-04-21T19:06:29.327Z,35.61
2023-04-21T19:09:31.540Z,35.76
2023-04-21T19:12:34.279Z,36.21
2023-04-21T19:15:36.674Z,35.96
2023-04-21T19:18:39.060Z,36.02
2023-04-21T19:21:41.208Z,36.24
2023-04-21T19:24:43.423Z,37.03
2023-04-21T19:27:46.322Z,36.87
2023-04-21T19:30:48.958Z,36.64
2023-04-21T19:33:52.444Z,37.06
2023-04-21T19:36:54.640Z,37.56
2023-04-21T19:39:56.897Z,37.67
2023-04-21T19:42:59.134Z,37.43
2023-04-21T19:46:02.070Z,37.82
2023-04-21T19:49:04.375Z,38.22
2023-04-21T19:52:06.917Z,38.39
2023-04-21T19:55:09.592Z,38.63
2023-04-21T19:58:11.882Z,38.05
2023-04-21T20:01:14.123Z,38.72
2023-04-21T20:04:16.682Z,38.65
2023-04-21T20:07:19.650Z,39.01
2023-04-21T20:10:25.327Z,39.22
2023-04-21T20:13:27.445Z,39.12
2023-04-21T20:16:29.749Z,39.40
2023-04-21T20:19:32.044Z,39.50
2023-04-21T20:22:34.232Z,39.87
2023-04-21T20:25:36.588Z,40.17
2023-04-21T20:28:38.895Z,40.71
2023-04-21T20:31:41.277Z,40.77
2023-04-21T20:34:43.644Z,40.93
2023-04-21T20:37:45.871Z,41.40
2023-04-21T20:40:50.167Z,41.38
2023-04-21T20:43:52.944Z,41.68
2023-04-21T20:46:55.204Z,41.96
2023-04-21T20:49:59.187Z,42.08
2023-04-21T20:53:02.257Z,42.30
2023-04-21T20:56:04.453Z,42.18
2023-04-21T20:59:07.008Z,42.48
2023-04-21T21:02:09.424Z,42.69
2023-04-21T21:05:11.691Z,42.77
2023-04-21T21:08:13.990Z,42.74
2023-04-21T21:11:16.178Z,42.76
2023-04-21T21:14:18.377Z,42.83
2023-04-21T21:17:20.641Z,42.71
2023-04-21T21:20:22.846Z,42.93
2023-04-21T21:23:25.010Z,42.86
2023-04-21T21:26:27.377Z,42.93
2023-04-21T21:29:29.908Z,43.21
2023-04-21T21:32:32.355Z,43.36
2023-04-21T21:35:34.759Z,43.02
2023-04-21T21:38:36.932Z,43.23
2023-04-21T21:41:39.873Z,43.00
2023-04-21T21:44:42.268Z,43.29
2023-04-21T21:47:45.771Z,43.21
2023-04-21T21:50:48.251Z,43.06
2023-04-21T21:53:50.625Z,43.30
2023-04-21T21:56:53.117Z,43.54
2023-04-21T21:59:55.420Z,43.66
2023-04-21T22:02:58.836Z,43.51
2023-04-21T22:06:01.187Z,44.09
2023-04-21T22:09:05.145Z,43.59
2023-04-21T22:12:07.501Z,43.83
2023-04-21T22:15:10.393Z,43.94
2023-04-21T22:18:12.552Z,43.99
2023-04-21T22:21:15.033Z,44.03
2023-04-21T22:24:17.268Z,44.05
2023-04-21T22:27:19.427Z,44.02
2023-04-21T22:30:21.684Z,44.04
2023-04-21T22:33:24.322Z,44.25
2023-04-21T22:36:26.618Z,44.39
2023-04-21T22:39:31.563Z,44.65
2023-04-21T22:42:33.809Z,44.49
2023-04-21T22:45:36.093Z,44.64
2023-04-21T22:48:38.401Z,44.64
2023-04-21T22:51:40.799Z,44.58
2023-04-21T22:54:43.077Z,44.75
2023-04-21T22:57:50.218Z,44.72
2023-04-21T23:00:52.773Z,45.03
2023-04-21T23:03:55.354Z,44.86
2023-04-21T23:06:57.727Z,44.65
2023-04-21T23:10:00.208Z,45.02
2023-04-21T23:13:03.092Z,45.06
2023-04-21T23:16:05.822Z,44.59
2023-04-21T23:19:08.304Z,44.84
2023-04-21T23:22:10.632Z,44.83
2023-04-21T23:25:12.896Z,44.96
2023-04-21T23:28:17.527Z,45.06
2023-04-21T23:31:19.768Z,44.93
2023-04-21T23:34:21.940Z,44.83
2023-04-21T23:37:24.226Z,45.19
2023-04-21T23:40:26.672Z,45.18
2023-04-21T23:43:29.339Z,45.54
2023-04-21T23:46:31.721Z,45.42
2023-04-21T23:49:33.968Z,45.70
2023-04-21T23:52:36.234Z,45.72
2023-04-21T23:55:38.562Z,45.62
2023-04-21T23:58:40.831Z,45.57
